sensor_id;sensor_type;location;lat;lon;timestamp;temperature;humidity
46364;DHT22;32071;49.036;9.344;2022-09-01T00:02:12;14.60;99.90
46364;DHT22;32071;49.036;9.344;2022-09-01T00:04:43;14.60;99.90
46364;DHT22;32071;49.036;9.344;2022-09-01T00:07:11;14.60;99.90
46364;DHT22;32071;49.036;9.344;2022-09-01T00:09:37;14.60;99.90
46364;DHT22;32071;49.036;9.344;2022-09-01T00:12:06;14.60;99.90
46364;DHT22;32071;49.036;9.344;2022-09-01T00:14:34;14.60;99.90
46364;DHT22;32071;49.036;9.344;2022-09-01T00:17:04;14.60;99.90
46364;DHT22;32071;49.036;9.344;2022-09-01T00:19:30;14.60;99.90
46364;DHT22;32071;49.036;9.344;2022-09-01T00:21:58;14.60;99.90
46364;DHT22;32071;49.036;9.344;2022-09-01T00:24:24;14.60;99.90
46364;DHT22;32071;49.036;9.344;2022-09-01T00:26:50;14.60;99.90
46364;DHT22;32071;49.036;9.344;2022-09-01T00:29:16;14.60;99.90
46364;DHT22;32071;49.036;9.344;2022-09-01T00:31:42;14.50;99.90
46364;DHT22;32071;49.036;9.344;2022-09-01T00:34:07;14.50;99.90
46364;DHT22;32071;49.036;9.344;2022-09-01T00:36:33;14.50;99.90
46364;DHT22;32071;49.036;9.344;2022-09-01T00:38:59;14.50;99.90
46364;DHT22;32071;49.036;9.344;2022-09-01T00:41:27;14.50;99.90
46364;DHT22;32071;49.036;9.344;2022-09-01T00:44:05;14.50;99.90
46364;DHT22;32071;49.036;9.344;2022-09-01T00:46:35;14.60;99.90
46364;DHT22;32071;49.036;9.344;2022-09-01T00:49:13;14.60;99.90
46364;DHT22;32071;49.036;9.344;2022-09-01T00:51:44;14.60;99.90
46364;DHT22;32071;49.036;9.344;2022-09-01T00:54:17;14.60;99.90
46364;DHT22;32071;49.036;9.344;2022-09-01T00:56:44;14.70;99.90
46364;DHT22;32071;49.036;9.344;2022-09-01T00:59:12;14.70;99.90
46364;DHT22;32071;49.036;9.344;2022-09-01T01:01:38;14.60;99.90
46364;DHT22;32071;49.036;9.344;2022-09-01T01:04:06;14.60;99.90
46364;DHT22;32071;49.036;9.344;2022-09-01T01:06:40;14.70;99.90
46364;DHT22;32071;49.036;9.344;2022-09-01T01:09:06;14.60;99.90
46364;DHT22;32071;49.036;9.344;2022-09-01T01:11:31;14.60;99.90
46364;DHT22;32071;49.036;9.344;2022-09-01T01:14:01;14.60;99.90
46364;DHT22;32071;49.036;9.344;2022-09-01T01:16:34;14.60;99.90
46364;DHT22;32071;49.036;9.344;2022-09-01T01:19:01;14.60;99.90
46364;DHT22;32071;49.036;9.344;2022-09-01T01:21:36;14.60;99.90
46364;DHT22;32071;49.036;9.344;2022-09-01T01:24:26;14.50;99.90
46364;DHT22;32071;49.036;9.344;2022-09-01T01:26:53;14.50;99.90
46364;DHT22;32071;49.036;9.344;2022-09-01T01:29:21;14.50;99.90
46364;DHT22;32071;49.036;9.344;2022-09-01T01:31:49;14.50;99.90
46364;DHT22;32071;49.036;9.344;2022-09-01T01:34:18;14.50;99.90
46364;DHT22;32071;49.036;9.344;2022-09-01T01:36:44;14.50;99.90
46364;DHT22;32071;49.036;9.344;2022-09-01T01:39:23;14.50;99.90
46364;DHT22;32071;49.036;9.344;2022-09-01T01:41:50;14.50;99.90
46364;DHT22;32071;49.036;9.344;2022-09-01T01:44:19;14.50;99.90
46364;DHT22;32071;49.036;9.344;2022-09-01T01:46:48;14.40;99.90
46364;DHT22;32071;49.036;9.344;2022-09-01T01:49:21;14.40;99.90
46364;DHT22;32071;49.036;9.344;2022-09-01T01:51:48;14.30;99.90
46364;DHT22;32071;49.036;9.344;2022-09-01T01:54:14;14.30;99.90
46364;DHT22;32071;49.036;9.344;2022-09-01T01:56:44;14.20;99.90
46364;DHT22;32071;49.036;9.344;2022-09-01T01:59:09;14.20;99.90
46364;DHT22;32071;49.036;9.344;2022-09-01T02:01:44;14.10;99.90
46364;DHT22;32071;49.036;9.344;2022-09-01T02:04:17;14.00;99.90
46364;DHT22;32071;49.036;9.344;2022-09-01T02:06:44;14.00;99.90
46364;DHT22;32071;49.036;9.344;2022-09-01T02:09:11;14.00;99.90
46364;DHT22;32071;49.036;9.344;2022-09-01T02:11:37;13.90;99.90
46364;DHT22;32071;49.036;9.344;2022-09-01T02:14:05;13.90;99.90
46364;DHT22;32071;49.036;9.344;2022-09-01T02:16:31;13.90;99.90
46364;DHT22;32071;49.036;9.344;2022-09-01T02:18:58;13.90;99.90
46364;DHT22;32071;49.036;9.344;2022-09-01T02:21:24;13.90;99.90
46364;DHT22;32071;49.036;9.344;2022-09-01T02:24:03;13.80;99.90
46364;DHT22;32071;49.036;9.344;2022-09-01T02:26:32;13.90;99.90
46364;DHT22;32071;49.036;9.344;2022-09-01T02:29:00;13.80;99.90
46364;DHT22;32071;49.036;9.344;2022-09-01T02:31:30;13.80;99.90
46364;DHT22;32071;49.036;9.344;2022-09-01T02:33:56;13.80;99.90
46364;DHT22;32071;49.036;9.344;2022-09-01T02:36:22;13.80;99.90
46364;DHT22;32071;49.036;9.344;2022-09-01T02:38:51;13.70;99.90
46364;DHT22;32071;49.036;9.344;2022-09-01T02:41:17;13.70;99.90
46364;DHT22;32071;49.036;9.344;2022-09-01T02:43:44;13.70;99.90
46364;DHT22;32071;49.036;9.344;2022-09-01T02:46:12;13.60;99.90
46364;DHT22;32071;49.036;9.344;2022-09-01T02:48:41;13.60;99.90
46364;DHT22;32071;49.036;9.344;2022-09-01T02:51:13;13.60;99.90
46364;DHT22;32071;49.036;9.344;2022-09-01T02:53:41;13.50;99.90
46364;DHT22;32071;49.036;9.344;2022-09-01T02:56:09;13.50;99.90
46364;DHT22;32071;49.036;9.344;2022-09-01T02:58:38;13.50;99.90
46364;DHT22;32071;49.036;9.344;2022-09-01T03:03:50;13.40;99.90
46364;DHT22;32071;49.036;9.344;2022-09-01T03:06:17;13.30;99.90
46364;DHT22;32071;49.036;9.344;2022-09-01T03:08:46;13.30;99.90
46364;DHT22;32071;49.036;9.344;2022-09-01T03:11:12;13.30;99.90
46364;DHT22;32071;49.036;9.344;2022-09-01T03:13:39;13.40;99.90
46364;DHT22;32071;49.036;9.344;2022-09-01T03:16:05;13.40;99.90
46364;DHT22;32071;49.036;9.344;2022-09-01T03:18:32;13.40;99.90
46364;DHT22;32071;49.036;9.344;2022-09-01T03:20:57;13.40;99.90
46364;DHT22;32071;49.036;9.344;2022-09-01T03:23:23;13.40;99.90
46364;DHT22;32071;49.036;9.344;2022-09-01T03:25:52;13.30;99.90
46364;DHT22;32071;49.036;9.344;2022-09-01T03:28:18;13.30;99.90
46364;DHT22;32071;49.036;9.344;2022-09-01T03:30:46;13.30;99.90
46364;DHT22;32071;49.036;9.344;2022-09-01T03:33:14;13.30;99.90
46364;DHT22;32071;49.036;9.344;2022-09-01T03:35:42;13.20;99.90
46364;DHT22;32071;49.036;9.344;2022-09-01T03:38:08;13.20;99.90
46364;DHT22;32071;49.036;9.344;2022-09-01T03:40:35;13.10;99.90
46364;DHT22;32071;49.036;9.344;2022-09-01T03:43:03;13.10;99.90
46364;DHT22;32071;49.036;9.344;2022-09-01T03:45:30;13.10;99.90
46364;DHT22;32071;49.036;9.344;2022-09-01T03:48:00;13.10;99.90
46364;DHT22;32071;49.036;9.344;2022-09-01T03:50:28;13.00;99.90
46364;DHT22;32071;49.036;9.344;2022-09-01T03:52:58;13.00;99.90
46364;DHT22;32071;49.036;9.344;2022-09-01T03:55:31;13.00;99.90
46364;DHT22;32071;49.036;9.344;2022-09-01T03:58:04;13.00;99.90
46364;DHT22;32071;49.036;9.344;2022-09-01T04:00:33;13.00;99.90
46364;DHT22;32071;49.036;9.344;2022-09-01T04:03:01;13.00;99.90
46364;DHT22;32071;49.036;9.344;2022-09-01T04:05:29;12.90;99.90
46364;DHT22;32071;49.036;9.344;2022-09-01T04:08:00;12.90;99.90
46364;DHT22;32071;49.036;9.344;2022-09-01T04:10:35;12.90;99.90
46364;DHT22;32071;49.036;9.344;2022-09-01T04:13:02;12.90;99.90
46364;DHT22;32071;49.036;9.344;2022-09-01T04:15:29;12.80;99.90
46364;DHT22;32071;49.036;9.344;2022-09-01T04:17:57;12.80;99.90
46364;DHT22;32071;49.036;9.344;2022-09-01T04:20:41;12.80;99.90
46364;DHT22;32071;49.036;9.344;2022-09-01T04:23:34;12.70;99.90
46364;DHT22;32071;49.036;9.344;2022-09-01T04:26:01;12.60;99.90
46364;DHT22;32071;49.036;9.344;2022-09-01T04:28:38;12.60;99.90
46364;DHT22;32071;49.036;9.344;2022-09-01T04:31:07;12.60;99.90
46364;DHT22;32071;49.036;9.344;2022-09-01T04:33:36;12.50;99.90
46364;DHT22;32071;49.036;9.344;2022-09-01T04:36:24;12.50;99.90
46364;DHT22;32071;49.036;9.344;2022-09-01T04:38:55;12.50;99.90
46364;DHT22;32071;49.036;9.344;2022-09-01T04:41:27;12.60;99.90
46364;DHT22;32071;49.036;9.344;2022-09-01T04:43:55;12.60;99.90
46364;DHT22;32071;49.036;9.344;2022-09-01T04:46:21;12.70;99.90
46364;DHT22;32071;49.036;9.344;2022-09-01T04:48:51;12.80;99.90
46364;DHT22;32071;49.036;9.344;2022-09-01T04:51:17;12.90;99.90
46364;DHT22;32071;49.036;9.344;2022-09-01T04:53:45;13.10;99.90
46364;DHT22;32071;49.036;9.344;2022-09-01T04:56:14;13.30;99.90
46364;DHT22;32071;49.036;9.344;2022-09-01T04:58:44;13.40;99.90
46364;DHT22;32071;49.036;9.344;2022-09-01T05:01:16;13.60;99.90
46364;DHT22;32071;49.036;9.344;2022-09-01T05:03:42;13.80;99.90
46364;DHT22;32071;49.036;9.344;2022-09-01T05:06:16;13.90;99.90
46364;DHT22;32071;49.036;9.344;2022-09-01T05:08:42;14.00;99.90
46364;DHT22;32071;49.036;9.344;2022-09-01T05:11:10;14.20;99.90
46364;DHT22;32071;49.036;9.344;2022-09-01T05:13:36;14.20;99.90
46364;DHT22;32071;49.036;9.344;2022-09-01T05:16:07;14.30;99.90
46364;DHT22;32071;49.036;9.344;2022-09-01T05:18:38;14.40;99.90
46364;DHT22;32071;49.036;9.344;2022-09-01T05:21:06;14.40;99.90
46364;DHT22;32071;49.036;9.344;2022-09-01T05:23:38;14.40;99.90
46364;DHT22;32071;49.036;9.344;2022-09-01T05:26:11;14.40;99.90
46364;DHT22;32071;49.036;9.344;2022-09-01T05:28:46;14.50;99.90
46364;DHT22;32071;49.036;9.344;2022-09-01T05:31:12;14.50;99.90
46364;DHT22;32071;49.036;9.344;2022-09-01T05:33:39;14.70;99.90
46364;DHT22;32071;49.036;9.344;2022-09-01T05:36:11;14.70;99.90
46364;DHT22;32071;49.036;9.344;2022-09-01T05:38:37;14.80;99.90
46364;DHT22;32071;49.036;9.344;2022-09-01T05:41:07;14.90;99.90
46364;DHT22;32071;49.036;9.344;2022-09-01T05:43:34;15.00;99.90
46364;DHT22;32071;49.036;9.344;2022-09-01T05:46:00;15.20;99.90
46364;DHT22;32071;49.036;9.344;2022-09-01T05:48:30;15.20;99.90
46364;DHT22;32071;49.036;9.344;2022-09-01T05:50:57;15.40;99.90
46364;DHT22;32071;49.036;9.344;2022-09-01T05:53:26;15.50;99.90
46364;DHT22;32071;49.036;9.344;2022-09-01T05:55:55;15.60;99.90
46364;DHT22;32071;49.036;9.344;2022-09-01T05:58:26;15.70;99.90
46364;DHT22;32071;49.036;9.344;2022-09-01T06:00:53;15.70;99.90
46364;DHT22;32071;49.036;9.344;2022-09-01T06:03:20;15.80;99.90
46364;DHT22;32071;49.036;9.344;2022-09-01T06:05:48;15.90;99.90
46364;DHT22;32071;49.036;9.344;2022-09-01T06:08:19;15.90;99.90
46364;DHT22;32071;49.036;9.344;2022-09-01T06:10:46;16.00;99.90
46364;DHT22;32071;49.036;9.344;2022-09-01T06:13:15;16.00;99.90
46364;DHT22;32071;49.036;9.344;2022-09-01T06:15:44;16.10;99.90
46364;DHT22;32071;49.036;9.344;2022-09-01T06:18:11;16.20;99.90
46364;DHT22;32071;49.036;9.344;2022-09-01T06:20:44;16.20;99.90
46364;DHT22;32071;49.036;9.344;2022-09-01T06:23:11;16.30;99.90
46364;DHT22;32071;49.036;9.344;2022-09-01T06:25:43;16.40;99.90
46364;DHT22;32071;49.036;9.344;2022-09-01T06:28:17;16.40;99.90
46364;DHT22;32071;49.036;9.344;2022-09-01T06:30:47;16.50;99.90
46364;DHT22;32071;49.036;9.344;2022-09-01T06:33:14;16.50;99.90
46364;DHT22;32071;49.036;9.344;2022-09-01T06:35:43;16.60;99.90
46364;DHT22;32071;49.036;9.344;2022-09-01T06:38:12;16.60;99.90
46364;DHT22;32071;49.036;9.344;2022-09-01T06:40:38;16.70;99.90
46364;DHT22;32071;49.036;9.344;2022-09-01T06:43:07;16.90;99.90
46364;DHT22;32071;49.036;9.344;2022-09-01T06:45:45;17.00;99.90
46364;DHT22;32071;49.036;9.344;2022-09-01T06:48:18;17.10;99.90
46364;DHT22;32071;49.036;9.344;2022-09-01T06:50:44;17.30;99.90
46364;DHT22;32071;49.036;9.344;2022-09-01T06:53:11;17.50;99.90
46364;DHT22;32071;49.036;9.344;2022-09-01T06:55:39;17.50;99.90
46364;DHT22;32071;49.036;9.344;2022-09-01T06:58:07;17.60;99.90
46364;DHT22;32071;49.036;9.344;2022-09-01T07:00:35;17.70;99.90
46364;DHT22;32071;49.036;9.344;2022-09-01T07:03:15;17.70;99.90
46364;DHT22;32071;49.036;9.344;2022-09-01T07:05:45;17.80;99.90
46364;DHT22;32071;49.036;9.344;2022-09-01T07:08:13;17.80;99.90
46364;DHT22;32071;49.036;9.344;2022-09-01T07:10:48;17.70;99.90
46364;DHT22;32071;49.036;9.344;2022-09-01T07:13:16;17.60;99.90
46364;DHT22;32071;49.036;9.344;2022-09-01T07:15:51;17.60;99.90
46364;DHT22;32071;49.036;9.344;2022-09-01T07:18:22;17.70;99.90
46364;DHT22;32071;49.036;9.344;2022-09-01T07:20:50;17.90;99.90
46364;DHT22;32071;49.036;9.344;2022-09-01T07:23:18;18.10;99.90
46364;DHT22;32071;49.036;9.344;2022-09-01T07:25:47;18.20;99.90
46364;DHT22;32071;49.036;9.344;2022-09-01T07:28:15;18.30;99.90
46364;DHT22;32071;49.036;9.344;2022-09-01T07:30:47;18.30;99.90
46364;DHT22;32071;49.036;9.344;2022-09-01T07:33:15;18.30;99.90
46364;DHT22;32071;49.036;9.344;2022-09-01T07:35:42;18.20;99.90
46364;DHT22;32071;49.036;9.344;2022-09-01T07:38:08;18.20;99.90
46364;DHT22;32071;49.036;9.344;2022-09-01T07:40:36;18.10;99.90
46364;DHT22;32071;49.036;9.344;2022-09-01T07:43:24;18.20;99.90
46364;DHT22;32071;49.036;9.344;2022-09-01T07:45:54;18.30;99.90
46364;DHT22;32071;49.036;9.344;2022-09-01T07:48:23;18.30;99.90
46364;DHT22;32071;49.036;9.344;2022-09-01T07:50:53;18.40;99.90
46364;DHT22;32071;49.036;9.344;2022-09-01T07:53:25;18.50;99.90
46364;DHT22;32071;49.036;9.344;2022-09-01T07:55:56;18.50;99.90
46364;DHT22;32071;49.036;9.344;2022-09-01T07:58:25;18.60;99.90
46364;DHT22;32071;49.036;9.344;2022-09-01T08:00:51;18.70;99.90
46364;DHT22;32071;49.036;9.344;2022-09-01T08:03:21;18.80;99.90
46364;DHT22;32071;49.036;9.344;2022-09-01T08:05:47;18.90;99.90
46364;DHT22;32071;49.036;9.344;2022-09-01T08:08:15;19.00;99.90
46364;DHT22;32071;49.036;9.344;2022-09-01T08:10:42;19.20;99.90
46364;DHT22;32071;49.036;9.344;2022-09-01T08:13:10;19.40;99.90
46364;DHT22;32071;49.036;9.344;2022-09-01T08:15:38;19.40;99.90
46364;DHT22;32071;49.036;9.344;2022-09-01T08:18:04;19.50;99.90
46364;DHT22;32071;49.036;9.344;2022-09-01T08:20:30;19.60;99.90
46364;DHT22;32071;49.036;9.344;2022-09-01T08:22:59;19.90;99.90
46364;DHT22;32071;49.036;9.344;2022-09-01T08:25:25;20.10;99.90
46364;DHT22;32071;49.036;9.344;2022-09-01T08:27:51;20.30;99.90
46364;DHT22;32071;49.036;9.344;2022-09-01T08:30:17;20.40;99.90
46364;DHT22;32071;49.036;9.344;2022-09-01T08:32:43;20.50;99.90
46364;DHT22;32071;49.036;9.344;2022-09-01T08:35:10;20.40;99.90
46364;DHT22;32071;49.036;9.344;2022-09-01T08:37:37;20.40;99.90
46364;DHT22;32071;49.036;9.344;2022-09-01T08:40:05;20.60;99.90
46364;DHT22;32071;49.036;9.344;2022-09-01T08:43:01;20.70;99.90
46364;DHT22;32071;49.036;9.344;2022-09-01T08:48:05;21.00;99.90
46364;DHT22;32071;49.036;9.344;2022-09-01T08:50:33;21.10;99.90
46364;DHT22;32071;49.036;9.344;2022-09-01T08:53:16;21.10;99.90
46364;DHT22;32071;49.036;9.344;2022-09-01T08:55:48;21.20;99.90
46364;DHT22;32071;49.036;9.344;2022-09-01T08:58:16;21.30;99.90
46364;DHT22;32071;49.036;9.344;2022-09-01T09:00:44;21.10;99.90
46364;DHT22;32071;49.036;9.344;2022-09-01T09:03:36;20.90;99.90
46364;DHT22;32071;49.036;9.344;2022-09-01T09:06:14;20.80;99.90
46364;DHT22;32071;49.036;9.344;2022-09-01T09:09:08;20.50;99.90
46364;DHT22;32071;49.036;9.344;2022-09-01T09:14:46;20.50;99.90
46364;DHT22;32071;49.036;9.344;2022-09-01T09:17:16;20.70;99.90
46364;DHT22;32071;49.036;9.344;2022-09-01T09:19:44;20.80;99.90
46364;DHT22;32071;49.036;9.344;2022-09-01T09:22:13;20.80;99.90
46364;DHT22;32071;49.036;9.344;2022-09-01T09:24:54;20.60;99.90
46364;DHT22;32071;49.036;9.344;2022-09-01T09:33:02;20.40;99.90
46364;DHT22;32071;49.036;9.344;2022-09-01T09:35:34;20.40;99.90
46364;DHT22;32071;49.036;9.344;2022-09-01T09:43:24;21.30;99.90
46364;DHT22;32071;49.036;9.344;2022-09-01T09:51:41;21.50;99.90
46364;DHT22;32071;49.036;9.344;2022-09-01T09:54:12;21.40;99.90
46364;DHT22;32071;49.036;9.344;2022-09-01T09:56:39;21.60;99.90
46364;DHT22;32071;49.036;9.344;2022-09-01T09:59:28;21.50;99.90
46364;DHT22;32071;49.036;9.344;2022-09-01T10:01:57;21.60;99.90
46364;DHT22;32071;49.036;9.344;2022-09-01T10:04:36;21.60;99.90
46364;DHT22;32071;49.036;9.344;2022-09-01T10:07:22;21.60;99.90
46364;DHT22;32071;49.036;9.344;2022-09-01T10:09:48;21.80;99.90
46364;DHT22;32071;49.036;9.344;2022-09-01T10:12:14;21.90;99.90
46364;DHT22;32071;49.036;9.344;2022-09-01T10:14:42;22.10;99.90
46364;DHT22;32071;49.036;9.344;2022-09-01T10:17:20;22.10;99.90
46364;DHT22;32071;49.036;9.344;2022-09-01T10:20:02;22.00;99.90
46364;DHT22;32071;49.036;9.344;2022-09-01T10:22:31;22.30;99.90
46364;DHT22;32071;49.036;9.344;2022-09-01T10:24:58;22.20;99.90
46364;DHT22;32071;49.036;9.344;2022-09-01T10:27:28;22.20;99.90
46364;DHT22;32071;49.036;9.344;2022-09-01T10:30:02;22.10;99.90
46364;DHT22;32071;49.036;9.344;2022-09-01T10:32:36;22.30;99.90
46364;DHT22;32071;49.036;9.344;2022-09-01T10:35:04;22.30;99.90
46364;DHT22;32071;49.036;9.344;2022-09-01T10:37:30;22.30;99.90
46364;DHT22;32071;49.036;9.344;2022-09-01T10:42:45;22.30;99.90
46364;DHT22;32071;49.036;9.344;2022-09-01T10:47:48;22.40;99.90
46364;DHT22;32071;49.036;9.344;2022-09-01T10:55:20;22.90;98.40
46364;DHT22;32071;49.036;9.344;2022-09-01T11:05:58;22.40;98.60
46364;DHT22;32071;49.036;9.344;2022-09-01T11:13:56;22.10;98.10
46364;DHT22;32071;49.036;9.344;2022-09-01T11:18:55;22.20;98.20
46364;DHT22;32071;49.036;9.344;2022-09-01T11:21:39;22.30;99.10
46364;DHT22;32071;49.036;9.344;2022-09-01T11:24:50;22.40;98.50
46364;DHT22;32071;49.036;9.344;2022-09-01T11:30:39;22.10;98.70
46364;DHT22;32071;49.036;9.344;2022-09-01T11:33:47;22.10;99.20
46364;DHT22;32071;49.036;9.344;2022-09-01T11:36:28;22.50;99.10
46364;DHT22;32071;49.036;9.344;2022-09-01T11:41:54;23.80;96.60
46364;DHT22;32071;49.036;9.344;2022-09-01T11:46:58;23.60;96.50
46364;DHT22;32071;49.036;9.344;2022-09-01T11:49:37;23.80;96.40
46364;DHT22;32071;49.036;9.344;2022-09-01T11:52:05;23.70;96.60
46364;DHT22;32071;49.036;9.344;2022-09-01T11:54:39;23.50;97.40
46364;DHT22;32071;49.036;9.344;2022-09-01T11:57:24;23.50;97.40
46364;DHT22;32071;49.036;9.344;2022-09-01T11:59:50;22.90;97.10
46364;DHT22;32071;49.036;9.344;2022-09-01T12:02:22;22.60;97.80
46364;DHT22;32071;49.036;9.344;2022-09-01T12:04:51;22.70;98.60
46364;DHT22;32071;49.036;9.344;2022-09-01T12:09:51;23.10;97.60
46364;DHT22;32071;49.036;9.344;2022-09-01T12:12:34;22.80;97.30
46364;DHT22;32071;49.036;9.344;2022-09-01T12:15:04;22.30;98.20
46364;DHT22;32071;49.036;9.344;2022-09-01T12:17:31;22.00;98.10
46364;DHT22;32071;49.036;9.344;2022-09-01T12:22:45;21.90;98.40
46364;DHT22;32071;49.036;9.344;2022-09-01T12:25:27;21.90;99.00
46364;DHT22;32071;49.036;9.344;2022-09-01T12:27:53;22.00;98.40
46364;DHT22;32071;49.036;9.344;2022-09-01T12:30:20;22.00;98.40
46364;DHT22;32071;49.036;9.344;2022-09-01T12:32:46;22.00;98.70
46364;DHT22;32071;49.036;9.344;2022-09-01T12:35:16;22.10;98.30
46364;DHT22;32071;49.036;9.344;2022-09-01T12:37:44;22.20;98.40
46364;DHT22;32071;49.036;9.344;2022-09-01T12:40:32;22.30;98.10
46364;DHT22;32071;49.036;9.344;2022-09-01T12:42:58;22.70;98.80
46364;DHT22;32071;49.036;9.344;2022-09-01T12:45:41;23.50;97.10
46364;DHT22;32071;49.036;9.344;2022-09-01T12:48:26;23.80;96.60
46364;DHT22;32071;49.036;9.344;2022-09-01T12:50:59;24.30;96.40
46364;DHT22;32071;49.036;9.344;2022-09-01T12:53:28;24.80;95.60
46364;DHT22;32071;49.036;9.344;2022-09-01T12:58:26;25.00;94.10
46364;DHT22;32071;49.036;9.344;2022-09-01T13:01:01;24.60;93.40
46364;DHT22;32071;49.036;9.344;2022-09-01T13:03:28;25.00;93.60
46364;DHT22;32071;49.036;9.344;2022-09-01T13:05:59;24.90;93.00
46364;DHT22;32071;49.036;9.344;2022-09-01T13:08:30;25.10;93.70
46364;DHT22;32071;49.036;9.344;2022-09-01T13:11:09;25.60;93.00
46364;DHT22;32071;49.036;9.344;2022-09-01T13:13:35;26.00;91.90
46364;DHT22;32071;49.036;9.344;2022-09-01T13:16:02;26.10;90.70
46364;DHT22;32071;49.036;9.344;2022-09-01T13:18:38;26.30;90.40
46364;DHT22;32071;49.036;9.344;2022-09-01T13:21:04;26.50;90.00
46364;DHT22;32071;49.036;9.344;2022-09-01T13:23:30;26.50;90.00
46364;DHT22;32071;49.036;9.344;2022-09-01T13:25:56;26.00;89.00
46364;DHT22;32071;49.036;9.344;2022-09-01T13:28:25;25.60;90.00
46364;DHT22;32071;49.036;9.344;2022-09-01T13:30:58;25.40;90.30
46364;DHT22;32071;49.036;9.344;2022-09-01T13:33:25;25.30;90.30
46364;DHT22;32071;49.036;9.344;2022-09-01T13:35:51;25.00;90.50
46364;DHT22;32071;49.036;9.344;2022-09-01T13:38:17;24.50;90.80
46364;DHT22;32071;49.036;9.344;2022-09-01T13:40:44;24.20;91.50
46364;DHT22;32071;49.036;9.344;2022-09-01T13:43:12;24.10;91.90
46364;DHT22;32071;49.036;9.344;2022-09-01T13:45:37;24.00;92.30
46364;DHT22;32071;49.036;9.344;2022-09-01T13:48:06;23.90;92.10
46364;DHT22;32071;49.036;9.344;2022-09-01T13:50:31;23.90;91.90
46364;DHT22;32071;49.036;9.344;2022-09-01T13:52:57;23.90;92.50
46364;DHT22;32071;49.036;9.344;2022-09-01T13:55:26;24.10;92.50
46364;DHT22;32071;49.036;9.344;2022-09-01T13:57:52;24.60;92.00
46364;DHT22;32071;49.036;9.344;2022-09-01T14:00:21;25.10;90.60
46364;DHT22;32071;49.036;9.344;2022-09-01T14:02:50;25.20;89.60
46364;DHT22;32071;49.036;9.344;2022-09-01T14:05:19;25.40;89.10
46364;DHT22;32071;49.036;9.344;2022-09-01T14:07:45;25.50;89.30
46364;DHT22;32071;49.036;9.344;2022-09-01T14:10:11;25.90;87.20
46364;DHT22;32071;49.036;9.344;2022-09-01T14:12:39;26.40;87.00
46364;DHT22;32071;49.036;9.344;2022-09-01T14:15:07;26.40;85.50
46364;DHT22;32071;49.036;9.344;2022-09-01T14:17:34;26.00;86.20
46364;DHT22;32071;49.036;9.344;2022-09-01T14:20:00;25.80;86.50
46364;DHT22;32071;49.036;9.344;2022-09-01T14:22:26;25.70;87.90
46364;DHT22;32071;49.036;9.344;2022-09-01T14:24:52;25.50;88.40
46364;DHT22;32071;49.036;9.344;2022-09-01T14:27:17;25.20;89.60
46364;DHT22;32071;49.036;9.344;2022-09-01T14:29:48;24.60;90.30
46364;DHT22;32071;49.036;9.344;2022-09-01T14:32:15;23.90;90.50
46364;DHT22;32071;49.036;9.344;2022-09-01T14:34:41;23.50;91.50
46364;DHT22;32071;49.036;9.344;2022-09-01T14:37:07;23.30;91.50
46364;DHT22;32071;49.036;9.344;2022-09-01T14:39:32;23.20;91.90
46364;DHT22;32071;49.036;9.344;2022-09-01T14:41:58;23.10;92.00
46364;DHT22;32071;49.036;9.344;2022-09-01T14:44:23;23.00;92.40
46364;DHT22;32071;49.036;9.344;2022-09-01T14:46:49;22.90;92.30
46364;DHT22;32071;49.036;9.344;2022-09-01T14:49:15;22.80;92.60
46364;DHT22;32071;49.036;9.344;2022-09-01T14:51:41;22.90;92.70
46364;DHT22;32071;49.036;9.344;2022-09-01T14:54:06;22.90;92.90
46364;DHT22;32071;49.036;9.344;2022-09-01T14:56:32;22.80;93.00
46364;DHT22;32071;49.036;9.344;2022-09-01T14:58:58;22.80;93.00
46364;DHT22;32071;49.036;9.344;2022-09-01T15:01:26;22.70;93.10
46364;DHT22;32071;49.036;9.344;2022-09-01T15:03:53;22.80;93.10
46364;DHT22;32071;49.036;9.344;2022-09-01T15:06:20;22.90;94.00
46364;DHT22;32071;49.036;9.344;2022-09-01T15:08:46;23.00;93.20
46364;DHT22;32071;49.036;9.344;2022-09-01T15:11:15;22.90;92.60
46364;DHT22;32071;49.036;9.344;2022-09-01T15:13:41;22.90;92.30
46364;DHT22;32071;49.036;9.344;2022-09-01T15:16:19;23.00;92.30
46364;DHT22;32071;49.036;9.344;2022-09-01T15:18:45;23.00;92.40
46364;DHT22;32071;49.036;9.344;2022-09-01T15:21:25;23.10;92.70
46364;DHT22;32071;49.036;9.344;2022-09-01T15:23:53;23.20;92.80
46364;DHT22;32071;49.036;9.344;2022-09-01T15:26:19;23.20;92.80
46364;DHT22;32071;49.036;9.344;2022-09-01T15:28:46;23.10;92.50
46364;DHT22;32071;49.036;9.344;2022-09-01T15:31:12;23.10;92.80
46364;DHT22;32071;49.036;9.344;2022-09-01T15:33:39;23.10;92.50
46364;DHT22;32071;49.036;9.344;2022-09-01T15:36:06;23.10;92.40
46364;DHT22;32071;49.036;9.344;2022-09-01T15:38:32;23.20;92.40
46364;DHT22;32071;49.036;9.344;2022-09-01T15:40:57;23.20;92.40
46364;DHT22;32071;49.036;9.344;2022-09-01T15:43:25;23.20;92.00
46364;DHT22;32071;49.036;9.344;2022-09-01T15:45:51;23.00;91.70
46364;DHT22;32071;49.036;9.344;2022-09-01T15:48:16;22.90;92.20
46364;DHT22;32071;49.036;9.344;2022-09-01T15:50:42;22.70;91.80
46364;DHT22;32071;49.036;9.344;2022-09-01T15:53:08;22.60;92.10
46364;DHT22;32071;49.036;9.344;2022-09-01T15:55:39;22.60;92.00
46364;DHT22;32071;49.036;9.344;2022-09-01T15:58:06;22.50;91.90
46364;DHT22;32071;49.036;9.344;2022-09-01T16:00:31;22.50;92.00
46364;DHT22;32071;49.036;9.344;2022-09-01T16:02:58;22.40;92.10
46364;DHT22;32071;49.036;9.344;2022-09-01T16:05:26;22.30;92.50
46364;DHT22;32071;49.036;9.344;2022-09-01T16:07:53;22.30;92.30
46364;DHT22;32071;49.036;9.344;2022-09-01T16:10:20;22.20;92.40
46364;DHT22;32071;49.036;9.344;2022-09-01T16:12:45;22.20;92.80
46364;DHT22;32071;49.036;9.344;2022-09-01T16:15:15;22.20;92.90
46364;DHT22;32071;49.036;9.344;2022-09-01T16:25:35;22.10;93.30
46364;DHT22;32071;49.036;9.344;2022-09-01T16:28:06;22.20;93.40
46364;DHT22;32071;49.036;9.344;2022-09-01T16:30:34;22.20;93.60
46364;DHT22;32071;49.036;9.344;2022-09-01T16:33:03;22.20;93.70
46364;DHT22;32071;49.036;9.344;2022-09-01T16:35:43;22.20;93.50
46364;DHT22;32071;49.036;9.344;2022-09-01T16:38:27;22.20;94.30
46364;DHT22;32071;49.036;9.344;2022-09-01T16:43:40;22.20;94.20
46364;DHT22;32071;49.036;9.344;2022-09-01T16:46:24;22.20;94.30
46364;DHT22;32071;49.036;9.344;2022-09-01T16:49:09;22.10;94.40
46364;DHT22;32071;49.036;9.344;2022-09-01T16:52:01;21.90;94.30
46364;DHT22;32071;49.036;9.344;2022-09-01T16:59:57;21.70;94.90
46364;DHT22;32071;49.036;9.344;2022-09-01T17:02:31;21.60;94.60
46364;DHT22;32071;49.036;9.344;2022-09-01T17:10:21;21.40;94.20
46364;DHT22;32071;49.036;9.344;2022-09-01T17:12:52;21.30;94.10
46364;DHT22;32071;49.036;9.344;2022-09-01T17:15:33;21.20;94.00
46364;DHT22;32071;49.036;9.344;2022-09-01T17:21:01;21.00;94.60